Musashi — JD3817 — position and weather

sailwx.info

Track history (hours):
 
Tides and Currents Weather Stations Pressure Air Temp Water Temp Dewpoint Dewpoint Depression Visibility Wind Speed Wind Dir Waves Ship Positions

Musashi

Last reported at 2017-Nov-23 05:00 UTC. Time now 2017-Nov-23 05:17 UTC.
Position N 35°38' E 139°46'.

Length 37 m; draft 2.8 m.

Type: Tug. MMSI: 431006206.

Date/timePositionNaut miles runAvg speedWind from/ knotsBaromVisibWave heightAir tempDewpointWater temp
2017-Nov-23 05:00N 35°38' E 139°46'0 0.0
2017-Nov-23 04:30N 35°38' E 139°46'0 0.0
2017-Nov-23 04:00N 35°38' E 139°46'0 0.0
2017-Nov-23 03:30N 35°38' E 139°46'0 0.0
2017-Nov-23 03:01N 35°38' E 139°46'0 0.0
2017-Nov-23 02:31N 35°38' E 139°46'0 0.0
2017-Nov-23 02:01N 35°38' E 139°46'0 0.0
2017-Nov-23 01:31N 35°38' E 139°46'0 0.0
2017-Nov-23 01:01N 35°38' E 139°46'0 0.0
2017-Nov-23 00:31N 35°38' E 139°46'0 0.0
2017-Nov-23 00:01N 35°38' E 139°46'0 0.0
2017-Nov-22 23:31N 35°38' E 139°46'0 0.0
2017-Nov-22 23:01N 35°38' E 139°46'0 0.0
2017-Nov-22 22:31N 35°38' E 139°46'0 0.0
2017-Nov-22 22:00N 35°38' E 139°46'0 0.0
2017-Nov-22 21:30N 35°38' E 139°46'0 0.0
2017-Nov-22 21:00N 35°38' E 139°46'0 0.0
2017-Nov-22 20:29N 35°38' E 139°46'0 0.0
2017-Nov-22 20:01N 35°38' E 139°46'0 0.0
2017-Nov-22 19:31N 35°38' E 139°46'  
2017-Nov-20 00:31N 35°39' E 139°46'0 0.0
2017-Nov-20 00:01N 35°39' E 139°46'0 0.0
2017-Nov-19 23:30N 35°39' E 139°46'0 0.0
2017-Nov-19 23:00N 35°39' E 139°46'0 0.0
2017-Nov-19 22:31N 35°39' E 139°46'0 0.0
2017-Nov-19 22:01N 35°39' E 139°46'0 0.0
2017-Nov-19 21:31N 35°39' E 139°46'0 0.0
2017-Nov-19 21:00N 35°39' E 139°46'0 0.0
2017-Nov-19 20:31N 35°39' E 139°46'0 0.0
2017-Nov-19 20:01N 35°39' E 139°46'0 0.0
2017-Nov-19 19:30N 35°39' E 139°46'0 0.0
2017-Nov-19 19:01N 35°39' E 139°46'0 0.0
2017-Nov-19 18:30N 35°39' E 139°46'0 0.0
2017-Nov-19 18:01N 35°39' E 139°46'0 0.0
2017-Nov-19 17:31N 35°39' E 139°46'0 0.0
2017-Nov-19 17:01N 35°39' E 139°46'0 0.0
2017-Nov-19 16:31N 35°39' E 139°46'0 0.0
2017-Nov-19 16:00N 35°39' E 139°46'0 0.0
2017-Nov-19 15:31N 35°39' E 139°46'0 0.0
2017-Nov-19 15:01N 35°39' E 139°46'0 0.0
2017-Nov-19 14:31N 35°39' E 139°46'0 0.0
2017-Nov-19 14:01N 35°39' E 139°46'0 0.0
2017-Nov-19 13:30N 35°39' E 139°46'0 0.0
2017-Nov-19 13:01N 35°39' E 139°46'1 2.8
2017-Nov-19 12:31N 35°37' E 139°46'1 2.6
2017-Nov-19 12:01N 35°36' E 139°47'3 5.2
2017-Nov-19 11:30N 35°39' E 139°46'0 0.0
2017-Nov-19 11:00N 35°39' E 139°46'0 0.0
2017-Nov-19 10:29N 35°39' E 139°46'0 0.0
2017-Nov-19 10:00N 35°39' E 139°46'0 0.0
2017-Nov-19 09:23N 35°39' E 139°46'0 0.0
2017-Nov-19 09:00N 35°39' E 139°46'0 0.0
2017-Nov-19 08:30N 35°39' E 139°46'0 0.0
2017-Nov-19 08:00N 35°39' E 139°46'0 0.0
2017-Nov-19 07:27N 35°39' E 139°46'0 0.0
2017-Nov-19 07:00N 35°39' E 139°46'0 0.0
2017-Nov-19 06:29N 35°39' E 139°46'0 0.0
2017-Nov-19 05:59N 35°39' E 139°46'0 0.0
2017-Nov-19 05:31N 35°39' E 139°46'0 0.0
2017-Nov-19 05:00N 35°39' E 139°46'0 0.0
2017-Nov-19 04:30N 35°39' E 139°46'0 0.0
2017-Nov-19 04:01N 35°39' E 139°46'0 0.0
2017-Nov-19 03:31N 35°39' E 139°46'0 0.0
2017-Nov-19 03:00N 35°39' E 139°46'0 0.0
2017-Nov-19 02:31N 35°39' E 139°46'0 0.0
2017-Nov-19 02:01N 35°39' E 139°46'0 0.0
2017-Nov-19 01:31N 35°39' E 139°46'0 0.0
2017-Nov-19 01:00N 35°39' E 139°46'0 0.0
2017-Nov-19 00:31N 35°39' E 139°46'0 0.0
2017-Nov-19 00:01N 35°39' E 139°46'0 0.0
2017-Nov-18 23:30N 35°39' E 139°46'3 3.6
2017-Nov-18 22:43N 35°36' E 139°46'1 4.0
2017-Nov-18 22:26N 35°35' E 139°47'2 5.5
2017-Nov-18 22:00N 35°34' E 139°50'1 1.5
2017-Nov-18 21:30N 35°34' E 139°49'3 5.4
2017-Nov-18 20:59N 35°36' E 139°47'0 0.7
2017-Nov-18 20:28N 35°37' E 139°47'2 2.8
2017-Nov-18 19:51N 35°38' E 139°46'0 0.0
2017-Nov-16 21:20N 35°38' E 139°46'2 1.5
2017-Nov-16 20:11N 35°36' E 139°46'2 0.3
2017-Nov-16 14:07N 35°38' E 139°46'111.4
2017-Nov-16 14:00N 35°37' E 139°46'1 1.9
2017-Nov-16 13:24N 35°36' E 139°47'1 2.0
2017-Nov-16 12:57N 35°35' E 139°48'2 4.2
2017-Nov-16 12:30N 35°34' E 139°49'4 4.4
2017-Nov-16 11:38N 35°37' E 139°46'111.3
2017-Nov-16 11:30N 35°38' E 139°46'2 3.0
2017-Nov-16 10:55N 35°37' E 139°47'0 0.5
2017-Nov-16 10:23N 35°36' E 139°47'1 2.4
2017-Nov-16 09:58N 35°35' E 139°47'2 3.6
2017-Nov-16 09:20N 35°34' E 139°49'0 0.6
2017-Nov-16 09:00N 35°34' E 139°49'3 5.0
2017-Nov-16 08:30N 35°35' E 139°47'0 0.0
2017-Nov-16 07:52N 35°35' E 139°47'0 0.0
2017-Nov-16 07:20N 35°35' E 139°47'0 0.0
2017-Nov-16 07:00N 35°35' E 139°47'0 0.0
2017-Nov-16 06:29N 35°35' E 139°47'0 0.0
2017-Nov-16 05:59N 35°35' E 139°47'0 0.0
2017-Nov-16 05:29N 35°35' E 139°47'1 1.3
2017-Nov-16 05:00N 35°35' E 139°47'2 3.1
2017-Nov-16 04:28N 35°36' E 139°46'2 0.2
2017-Nov-15 20:37N 35°38' E 139°46'0 0.0
2017-Nov-15 20:14N 35°38' E 139°46'0 0.0
2017-Nov-15 10:23N 35°38' E 139°46'2 2.6
2017-Nov-15 09:26N 35°36' E 139°47'3 0.1
2017-Nov-14 11:34N 35°38' E 139°46'1 8.9
2017-Nov-14 11:28N 35°37' E 139°46'1 1.7
2017-Nov-14 10:56N 35°36' E 139°46'1 2.4
2017-Nov-14 10:29N 35°37' E 139°46'1 2.6
2017-Nov-14 09:57N 35°37' E 139°47'1 3.0
2017-Nov-14 09:30N 35°35' E 139°47'2 3.2
2017-Nov-14 09:00N 35°34' E 139°49'  
Track history (hours):
 
Tides and Currents Weather Stations Pressure Air Temp Water Temp Dewpoint Dewpoint Depression Visibility Wind Speed Wind Dir Waves Ship Positions

Musashi

Last reported at 2017-Nov-23 05:00 UTC. Time now 2017-Nov-23 05:17 UTC.
Position N 35°38' E 139°46'.

Length 37 m; draft 2.8 m.

Type: Tug. MMSI: 431006206.

Date/timePositionNaut miles runAvg speedWind from/ knotsBaromVisibWave heightAir tempDewpointWater temp
2017-Nov-23 05:00N 35°38' E 139°46'0 0.0
2017-Nov-23 04:30N 35°38' E 139°46'0 0.0
2017-Nov-23 04:00N 35°38' E 139°46'0 0.0
2017-Nov-23 03:30N 35°38' E 139°46'0 0.0
2017-Nov-23 03:01N 35°38' E 139°46'0 0.0
2017-Nov-23 02:31N 35°38' E 139°46'0 0.0
2017-Nov-23 02:01N 35°38' E 139°46'0 0.0
2017-Nov-23 01:31N 35°38' E 139°46'0 0.0
2017-Nov-23 01:01N 35°38' E 139°46'0 0.0
2017-Nov-23 00:31N 35°38' E 139°46'0 0.0
2017-Nov-23 00:01N 35°38' E 139°46'0 0.0
2017-Nov-22 23:31N 35°38' E 139°46'0 0.0
2017-Nov-22 23:01N 35°38' E 139°46'0 0.0
2017-Nov-22 22:31N 35°38' E 139°46'0 0.0
2017-Nov-22 22:00N 35°38' E 139°46'0 0.0
2017-Nov-22 21:30N 35°38' E 139°46'0 0.0
2017-Nov-22 21:00N 35°38' E 139°46'0 0.0
2017-Nov-22 20:29N 35°38' E 139°46'0 0.0
2017-Nov-22 20:01N 35°38' E 139°46'0 0.0
2017-Nov-22 19:31N 35°38' E 139°46'  
2017-Nov-20 00:31N 35°39' E 139°46'0 0.0
2017-Nov-20 00:01N 35°39' E 139°46'0 0.0
2017-Nov-19 23:30N 35°39' E 139°46'0 0.0
2017-Nov-19 23:00N 35°39' E 139°46'0 0.0
2017-Nov-19 22:31N 35°39' E 139°46'0 0.0
2017-Nov-19 22:01N 35°39' E 139°46'0 0.0
2017-Nov-19 21:31N 35°39' E 139°46'0 0.0
2017-Nov-19 21:00N 35°39' E 139°46'0 0.0
2017-Nov-19 20:31N 35°39' E 139°46'0 0.0
2017-Nov-19 20:01N 35°39' E 139°46'0 0.0
2017-Nov-19 19:30N 35°39' E 139°46'0 0.0
2017-Nov-19 19:01N 35°39' E 139°46'0 0.0
2017-Nov-19 18:30N 35°39' E 139°46'0 0.0
2017-Nov-19 18:01N 35°39' E 139°46'0 0.0
2017-Nov-19 17:31N 35°39' E 139°46'0 0.0
2017-Nov-19 17:01N 35°39' E 139°46'0 0.0
2017-Nov-19 16:31N 35°39' E 139°46'0 0.0
2017-Nov-19 16:00N 35°39' E 139°46'0 0.0
2017-Nov-19 15:31N 35°39' E 139°46'0 0.0
2017-Nov-19 15:01N 35°39' E 139°46'0 0.0
2017-Nov-19 14:31N 35°39' E 139°46'0 0.0
2017-Nov-19 14:01N 35°39' E 139°46'0 0.0
2017-Nov-19 13:30N 35°39' E 139°46'0 0.0
2017-Nov-19 13:01N 35°39' E 139°46'1 2.8
2017-Nov-19 12:31N 35°37' E 139°46'1 2.6
2017-Nov-19 12:01N 35°36' E 139°47'3 5.2
2017-Nov-19 11:30N 35°39' E 139°46'0 0.0
2017-Nov-19 11:00N 35°39' E 139°46'0 0.0
2017-Nov-19 10:29N 35°39' E 139°46'0 0.0
2017-Nov-19 10:00N 35°39' E 139°46'0 0.0
2017-Nov-19 09:23N 35°39' E 139°46'0 0.0
2017-Nov-19 09:00N 35°39' E 139°46'0 0.0
2017-Nov-19 08:30N 35°39' E 139°46'0 0.0
2017-Nov-19 08:00N 35°39' E 139°46'0 0.0
2017-Nov-19 07:27N 35°39' E 139°46'0 0.0
2017-Nov-19 07:00N 35°39' E 139°46'0 0.0
2017-Nov-19 06:29N 35°39' E 139°46'0 0.0
2017-Nov-19 05:59N 35°39' E 139°46'0 0.0
2017-Nov-19 05:31N 35°39' E 139°46'0 0.0
2017-Nov-19 05:00N 35°39' E 139°46'0 0.0
2017-Nov-19 04:30N 35°39' E 139°46'0 0.0
2017-Nov-19 04:01N 35°39' E 139°46'0 0.0
2017-Nov-19 03:31N 35°39' E 139°46'0 0.0
2017-Nov-19 03:00N 35°39' E 139°46'0 0.0
2017-Nov-19 02:31N 35°39' E 139°46'0 0.0
2017-Nov-19 02:01N 35°39' E 139°46'0 0.0
2017-Nov-19 01:31N 35°39' E 139°46'0 0.0
2017-Nov-19 01:00N 35°39' E 139°46'0 0.0
2017-Nov-19 00:31N 35°39' E 139°46'0 0.0
2017-Nov-19 00:01N 35°39' E 139°46'0 0.0
2017-Nov-18 23:30N 35°39' E 139°46'3 3.6
2017-Nov-18 22:43N 35°36' E 139°46'1 4.0
2017-Nov-18 22:26N 35°35' E 139°47'2 5.5
2017-Nov-18 22:00N 35°34' E 139°50'1 1.5
2017-Nov-18 21:30N 35°34' E 139°49'3 5.4
2017-Nov-18 20:59N 35°36' E 139°47'0 0.7
2017-Nov-18 20:28N 35°37' E 139°47'2 2.8
2017-Nov-18 19:51N 35°38' E 139°46'0 0.0
2017-Nov-16 21:20N 35°38' E 139°46'2 1.5
2017-Nov-16 20:11N 35°36' E 139°46'2 0.3
2017-Nov-16 14:07N 35°38' E 139°46'111.4
2017-Nov-16 14:00N 35°37' E 139°46'1 1.9
2017-Nov-16 13:24N 35°36' E 139°47'1 2.0
2017-Nov-16 12:57N 35°35' E 139°48'2 4.2
2017-Nov-16 12:30N 35°34' E 139°49'4 4.4
2017-Nov-16 11:38N 35°37' E 139°46'111.3
2017-Nov-16 11:30N 35°38' E 139°46'2 3.0
2017-Nov-16 10:55N 35°37' E 139°47'0 0.5
2017-Nov-16 10:23N 35°36' E 139°47'1 2.4
2017-Nov-16 09:58N 35°35' E 139°47'2 3.6
2017-Nov-16 09:20N 35°34' E 139°49'0 0.6
2017-Nov-16 09:00N 35°34' E 139°49'3 5.0
2017-Nov-16 08:30N 35°35' E 139°47'0 0.0
2017-Nov-16 07:52N 35°35' E 139°47'0 0.0
2017-Nov-16 07:20N 35°35' E 139°47'0 0.0
2017-Nov-16 07:00N 35°35' E 139°47'0 0.0
2017-Nov-16 06:29N 35°35' E 139°47'0 0.0
2017-Nov-16 05:59N 35°35' E 139°47'0 0.0
2017-Nov-16 05:29N 35°35' E 139°47'1 1.3
2017-Nov-16 05:00N 35°35' E 139°47'2 3.1
2017-Nov-16 04:28N 35°36' E 139°46'2 0.2
2017-Nov-15 20:37N 35°38' E 139°46'0 0.0
2017-Nov-15 20:14N 35°38' E 139°46'0 0.0
2017-Nov-15 10:23N 35°38' E 139°46'2 2.6
2017-Nov-15 09:26N 35°36' E 139°47'3 0.1
2017-Nov-14 11:34N 35°38' E 139°46'1 8.9
2017-Nov-14 11:28N 35°37' E 139°46'1 1.7
2017-Nov-14 10:56N 35°36' E 139°46'1 2.4
2017-Nov-14 10:29N 35°37' E 139°46'1 2.6
2017-Nov-14 09:57N 35°37' E 139°47'1 3.0
2017-Nov-14 09:30N 35°35' E 139°47'2 3.2
2017-Nov-14 09:00N 35°34' E 139°49'  

Dump ship's entire track history